sensor_id;sensor_type;location;lat;lon;timestamp;P1;durP1;ratioP1;P2;durP2;ratioP2
61638;SDS011;47544;52.484;4.658;2022-10-04T00:00:09;14.48;;;7.63;;
61638;SDS011;47544;52.484;4.658;2022-10-04T00:00:24;14.65;;;8.15;;
61638;SDS011;47544;52.484;4.658;2022-10-04T00:00:38;15.10;;;8.25;;
61638;SDS011;47544;52.484;4.658;2022-10-04T00:00:53;15.25;;;7.63;;
61638;SDS011;47544;52.484;4.658;2022-10-04T00:01:07;15.00;;;7.05;;
61638;SDS011;47544;52.484;4.658;2022-10-04T00:01:23;14.48;;;6.90;;
61638;SDS011;47544;52.484;4.658;2022-10-04T00:01:41;15.10;;;7.15;;
61638;SDS011;47544;52.484;4.658;2022-10-04T00:01:55;12.88;;;7.20;;
61638;SDS011;47544;52.484;4.658;2022-10-04T00:02:17;12.38;;;6.85;;
61638;SDS011;47544;52.484;4.658;2022-10-04T00:02:29;13.10;;;6.60;;
61638;SDS011;47544;52.484;4.658;2022-10-04T00:02:43;12.57;;;6.80;;
61638;SDS011;47544;52.484;4.658;2022-10-04T00:02:58;12.38;;;6.93;;
61638;SDS011;47544;52.484;4.658;2022-10-04T00:03:16;13.93;;;7.45;;
61638;SDS011;47544;52.484;4.658;2022-10-04T00:03:29;14.10;;;7.20;;
61638;SDS011;47544;52.484;4.658;2022-10-04T00:03:42;14.27;;;6.78;;
61638;SDS011;47544;52.484;4.658;2022-10-04T00:04:00;15.20;;;7.00;;
61638;SDS011;47544;52.484;4.658;2022-10-04T00:04:16;15.23;;;7.35;;
61638;SDS011;47544;52.484;4.658;2022-10-04T00:04:28;16.70;;;7.30;;
61638;SDS011;47544;52.484;4.658;2022-10-04T00:04:43;15.68;;;7.20;;
61638;SDS011;47544;52.484;4.658;2022-10-04T00:04:56;14.98;;;7.13;;
61638;SDS011;47544;52.484;4.658;2022-10-04T00:05:13;14.70;;;6.25;;
61638;SDS011;47544;52.484;4.658;2022-10-04T00:05:25;14.27;;;6.13;;
61638;SDS011;47544;52.484;4.658;2022-10-04T00:05:37;15.05;;;6.65;;
61638;SDS011;47544;52.484;4.658;2022-10-04T00:05:52;12.88;;;7.03;;
61638;SDS011;47544;52.484;4.658;2022-10-04T00:06:05;12.73;;;6.95;;
61638;SDS011;47544;52.484;4.658;2022-10-04T00:06:22;13.60;;;6.93;;
61638;SDS011;47544;52.484;4.658;2022-10-04T00:06:34;12.80;;;7.00;;
61638;SDS011;47544;52.484;4.658;2022-10-04T00:06:48;12.85;;;7.10;;
61638;SDS011;47544;52.484;4.658;2022-10-04T00:07:01;12.50;;;6.90;;
61638;SDS011;47544;52.484;4.658;2022-10-04T00:07:15;12.93;;;6.60;;
61638;SDS011;47544;52.484;4.658;2022-10-04T00:07:28;13.25;;;6.30;;
61638;SDS011;47544;52.484;4.658;2022-10-04T00:07:43;14.15;;;6.15;;
61638;SDS011;47544;52.484;4.658;2022-10-04T00:08:00;15.27;;;6.60;;
61638;SDS011;47544;52.484;4.658;2022-10-04T00:08:17;14.85;;;6.75;;
61638;SDS011;47544;52.484;4.658;2022-10-04T00:08:33;13.05;;;6.60;;
61638;SDS011;47544;52.484;4.658;2022-10-04T00:08:47;14.73;;;6.50;;
61638;SDS011;47544;52.484;4.658;2022-10-04T00:09:03;14.63;;;6.57;;
61638;SDS011;47544;52.484;4.658;2022-10-04T00:09:18;15.98;;;6.70;;
61638;SDS011;47544;52.484;4.658;2022-10-04T00:09:31;15.52;;;6.50;;
61638;SDS011;47544;52.484;4.658;2022-10-04T00:09:44;13.18;;;6.30;;
61638;SDS011;47544;52.484;4.658;2022-10-04T00:09:56;11.73;;;6.40;;
61638;SDS011;47544;52.484;4.658;2022-10-04T00:10:14;12.55;;;6.57;;
61638;SDS011;47544;52.484;4.658;2022-10-04T00:10:28;13.30;;;6.50;;
61638;SDS011;47544;52.484;4.658;2022-10-04T00:10:40;12.48;;;6.25;;
61638;SDS011;47544;52.484;4.658;2022-10-04T00:10:59;13.05;;;6.45;;
61638;SDS011;47544;52.484;4.658;2022-10-04T00:11:15;13.40;;;6.55;;
61638;SDS011;47544;52.484;4.658;2022-10-04T00:11:28;12.40;;;6.60;;
61638;SDS011;47544;52.484;4.658;2022-10-04T00:11:42;13.43;;;6.55;;
61638;SDS011;47544;52.484;4.658;2022-10-04T00:11:53;14.15;;;6.50;;
61638;SDS011;47544;52.484;4.658;2022-10-04T00:12:05;14.35;;;6.20;;
61638;SDS011;47544;52.484;4.658;2022-10-04T00:12:19;13.98;;;6.05;;
61638;SDS011;47544;52.484;4.658;2022-10-04T00:12:31;12.93;;;6.28;;
61638;SDS011;47544;52.484;4.658;2022-10-04T00:12:45;12.15;;;6.45;;
61638;SDS011;47544;52.484;4.658;2022-10-04T00:12:58;11.38;;;6.25;;
61638;SDS011;47544;52.484;4.658;2022-10-04T00:13:12;12.25;;;6.30;;
61638;SDS011;47544;52.484;4.658;2022-10-04T00:13:25;12.85;;;6.38;;
61638;SDS011;47544;52.484;4.658;2022-10-04T00:13:37;12.07;;;6.30;;
61638;SDS011;47544;52.484;4.658;2022-10-04T00:13:51;12.82;;;6.35;;
61638;SDS011;47544;52.484;4.658;2022-10-04T00:14:04;12.82;;;6.10;;
61638;SDS011;47544;52.484;4.658;2022-10-04T00:14:18;12.88;;;6.40;;
61638;SDS011;47544;52.484;4.658;2022-10-04T00:14:31;12.45;;;6.57;;
61638;SDS011;47544;52.484;4.658;2022-10-04T00:14:42;12.82;;;6.45;;
61638;SDS011;47544;52.484;4.658;2022-10-04T00:14:54;13.10;;;6.13;;
61638;SDS011;47544;52.484;4.658;2022-10-04T00:15:06;12.88;;;5.78;;
61638;SDS011;47544;52.484;4.658;2022-10-04T00:15:28;12.07;;;5.88;;
61638;SDS011;47544;52.484;4.658;2022-10-04T00:15:40;11.30;;;6.20;;
61638;SDS011;47544;52.484;4.658;2022-10-04T00:15:51;11.43;;;6.22;;
61638;SDS011;47544;52.484;4.658;2022-10-04T00:16:02;11.30;;;6.25;;
61638;SDS011;47544;52.484;4.658;2022-10-04T00:16:18;11.23;;;6.10;;
61638;SDS011;47544;52.484;4.658;2022-10-04T00:16:31;11.68;;;6.40;;
61638;SDS011;47544;52.484;4.658;2022-10-04T00:16:43;12.35;;;6.50;;
61638;SDS011;47544;52.484;4.658;2022-10-04T00:16:56;12.93;;;6.43;;
61638;SDS011;47544;52.484;4.658;2022-10-04T00:17:08;13.85;;;6.45;;
61638;SDS011;47544;52.484;4.658;2022-10-04T00:17:22;13.43;;;6.15;;
61638;SDS011;47544;52.484;4.658;2022-10-04T00:17:36;12.02;;;5.88;;
61638;SDS011;47544;52.484;4.658;2022-10-04T00:18:00;11.85;;;5.97;;
61638;SDS011;47544;52.484;4.658;2022-10-04T00:18:19;11.15;;;5.80;;
61638;SDS011;47544;52.484;4.658;2022-10-04T00:18:37;11.77;;;5.75;;
61638;SDS011;47544;52.484;4.658;2022-10-04T00:18:53;11.98;;;6.05;;
61638;SDS011;47544;52.484;4.658;2022-10-04T00:19:23;12.27;;;6.15;;
61638;SDS011;47544;52.484;4.658;2022-10-04T00:19:39;14.93;;;6.30;;
61638;SDS011;47544;52.484;4.658;2022-10-04T00:19:50;14.88;;;6.00;;
61638;SDS011;47544;52.484;4.658;2022-10-04T00:20:03;13.77;;;5.88;;
61638;SDS011;47544;52.484;4.658;2022-10-04T00:21:07;13.68;;;6.07;;
61638;SDS011;47544;52.484;4.658;2022-10-04T00:21:18;13.57;;;5.88;;
61638;SDS011;47544;52.484;4.658;2022-10-04T00:22:11;13.68;;;5.88;;
61638;SDS011;47544;52.484;4.658;2022-10-04T00:22:23;12.30;;;5.90;;
61638;SDS011;47544;52.484;4.658;2022-10-04T00:22:35;11.32;;;5.53;;
61638;SDS011;47544;52.484;4.658;2022-10-04T00:23:23;11.57;;;5.75;;
61638;SDS011;47544;52.484;4.658;2022-10-04T00:23:39;11.32;;;5.65;;
61638;SDS011;47544;52.484;4.658;2022-10-04T00:23:51;9.93;;;5.57;;
61638;SDS011;47544;52.484;4.658;2022-10-04T00:24:19;12.10;;;5.78;;
61638;SDS011;47544;52.484;4.658;2022-10-04T00:24:32;13.77;;;6.07;;
61638;SDS011;47544;52.484;4.658;2022-10-04T00:25:15;13.20;;;5.90;;
61638;SDS011;47544;52.484;4.658;2022-10-04T00:25:35;12.30;;;6.05;;
61638;SDS011;47544;52.484;4.658;2022-10-04T00:25:47;12.45;;;5.95;;
61638;SDS011;47544;52.484;4.658;2022-10-04T00:25:59;13.95;;;5.95;;
61638;SDS011;47544;52.484;4.658;2022-10-04T00:26:14;14.18;;;5.90;;
61638;SDS011;47544;52.484;4.658;2022-10-04T00:27:21;13.35;;;5.90;;
61638;SDS011;47544;52.484;4.658;2022-10-04T00:27:33;12.52;;;5.82;;
61638;SDS011;47544;52.484;4.658;2022-10-04T00:28:22;13.95;;;6.57;;
61638;SDS011;47544;52.484;4.658;2022-10-04T00:28:43;14.75;;;6.28;;
61638;SDS011;47544;52.484;4.658;2022-10-04T00:28:54;12.73;;;6.00;;
61638;SDS011;47544;52.484;4.658;2022-10-04T00:29:37;13.35;;;5.80;;
61638;SDS011;47544;52.484;4.658;2022-10-04T00:29:48;14.85;;;5.97;;
61638;SDS011;47544;52.484;4.658;2022-10-04T00:30:13;12.45;;;5.85;;
61638;SDS011;47544;52.484;4.658;2022-10-04T00:30:24;12.00;;;5.60;;
61638;SDS011;47544;52.484;4.658;2022-10-04T00:30:54;12.95;;;5.85;;
61638;SDS011;47544;52.484;4.658;2022-10-04T00:31:19;12.15;;;6.40;;
61638;SDS011;47544;52.484;4.658;2022-10-04T00:31:32;11.90;;;5.90;;
61638;SDS011;47544;52.484;4.658;2022-10-04T00:32:27;12.65;;;5.60;;
61638;SDS011;47544;52.484;4.658;2022-10-04T00:32:44;12.18;;;5.70;;
61638;SDS011;47544;52.484;4.658;2022-10-04T00:32:59;11.25;;;5.65;;
61638;SDS011;47544;52.484;4.658;2022-10-04T00:33:12;12.32;;;5.80;;
61638;SDS011;47544;52.484;4.658;2022-10-04T00:33:52;14.20;;;5.70;;
61638;SDS011;47544;52.484;4.658;2022-10-04T00:34:48;11.50;;;5.57;;
61638;SDS011;47544;52.484;4.658;2022-10-04T00:34:59;11.65;;;5.22;;
61638;SDS011;47544;52.484;4.658;2022-10-04T00:35:46;13.65;;;5.80;;
61638;SDS011;47544;52.484;4.658;2022-10-04T00:35:58;13.65;;;5.60;;
61638;SDS011;47544;52.484;4.658;2022-10-04T00:36:47;13.43;;;5.97;;
61638;SDS011;47544;52.484;4.658;2022-10-04T00:37:00;12.18;;;5.50;;
61638;SDS011;47544;52.484;4.658;2022-10-04T00:37:13;11.63;;;5.38;;
61638;SDS011;47544;52.484;4.658;2022-10-04T00:37:26;10.80;;;5.50;;
61638;SDS011;47544;52.484;4.658;2022-10-04T00:38:11;13.52;;;5.40;;
61638;SDS011;47544;52.484;4.658;2022-10-04T00:38:24;13.30;;;5.55;;
61638;SDS011;47544;52.484;4.658;2022-10-04T00:38:36;12.73;;;5.60;;
61638;SDS011;47544;52.484;4.658;2022-10-04T00:39:00;13.40;;;5.82;;
61638;SDS011;47544;52.484;4.658;2022-10-04T00:39:41;12.98;;;5.60;;
61638;SDS011;47544;52.484;4.658;2022-10-04T00:40:22;13.75;;;6.10;;
61638;SDS011;47544;52.484;4.658;2022-10-04T00:40:37;13.32;;;5.88;;
61638;SDS011;47544;52.484;4.658;2022-10-04T00:40:50;13.75;;;5.90;;
61638;SDS011;47544;52.484;4.658;2022-10-04T00:41:06;13.48;;;6.03;;
61638;SDS011;47544;52.484;4.658;2022-10-04T00:41:18;12.95;;;5.88;;
61638;SDS011;47544;52.484;4.658;2022-10-04T00:41:33;13.40;;;6.18;;
61638;SDS011;47544;52.484;4.658;2022-10-04T00:41:52;12.70;;;6.40;;
61638;SDS011;47544;52.484;4.658;2022-10-04T00:42:41;13.32;;;6.10;;
61638;SDS011;47544;52.484;4.658;2022-10-04T00:42:55;13.30;;;6.15;;
61638;SDS011;47544;52.484;4.658;2022-10-04T00:43:09;12.60;;;6.10;;
61638;SDS011;47544;52.484;4.658;2022-10-04T00:43:22;12.43;;;6.05;;
61638;SDS011;47544;52.484;4.658;2022-10-04T00:43:36;12.52;;;5.80;;
61638;SDS011;47544;52.484;4.658;2022-10-04T00:43:48;13.00;;;6.10;;
61638;SDS011;47544;52.484;4.658;2022-10-04T00:43:59;13.20;;;6.20;;
61638;SDS011;47544;52.484;4.658;2022-10-04T00:44:13;13.10;;;6.10;;
61638;SDS011;47544;52.484;4.658;2022-10-04T00:44:30;13.27;;;6.05;;
61638;SDS011;47544;52.484;4.658;2022-10-04T00:44:46;13.40;;;5.95;;
61638;SDS011;47544;52.484;4.658;2022-10-04T00:44:59;11.98;;;5.63;;
61638;SDS011;47544;52.484;4.658;2022-10-04T00:45:16;10.73;;;5.57;;
61638;SDS011;47544;52.484;4.658;2022-10-04T00:45:30;11.70;;;5.65;;
61638;SDS011;47544;52.484;4.658;2022-10-04T00:45:43;12.80;;;5.50;;
61638;SDS011;47544;52.484;4.658;2022-10-04T00:45:55;12.50;;;5.70;;
61638;SDS011;47544;52.484;4.658;2022-10-04T00:46:09;11.98;;;5.80;;
61638;SDS011;47544;52.484;4.658;2022-10-04T00:46:22;10.85;;;5.65;;
61638;SDS011;47544;52.484;4.658;2022-10-04T00:46:34;11.43;;;5.68;;
61638;SDS011;47544;52.484;4.658;2022-10-04T00:46:45;11.30;;;5.65;;
61638;SDS011;47544;52.484;4.658;2022-10-04T00:46:57;11.07;;;5.50;;
61638;SDS011;47544;52.484;4.658;2022-10-04T00:47:13;11.35;;;5.50;;
61638;SDS011;47544;52.484;4.658;2022-10-04T00:47:31;10.23;;;5.20;;
61638;SDS011;47544;52.484;4.658;2022-10-04T00:48:49;10.85;;;5.22;;
61638;SDS011;47544;52.484;4.658;2022-10-04T00:49:03;11.65;;;5.40;;
61638;SDS011;47544;52.484;4.658;2022-10-04T00:49:17;11.52;;;5.28;;
61638;SDS011;47544;52.484;4.658;2022-10-04T00:49:31;11.52;;;5.13;;
61638;SDS011;47544;52.484;4.658;2022-10-04T00:49:43;12.07;;;5.40;;
61638;SDS011;47544;52.484;4.658;2022-10-04T00:49:58;11.80;;;5.38;;
61638;SDS011;47544;52.484;4.658;2022-10-04T00:50:13;12.13;;;5.10;;
61638;SDS011;47544;52.484;4.658;2022-10-04T00:50:32;10.98;;;5.18;;
61638;SDS011;47544;52.484;4.658;2022-10-04T00:50:43;11.15;;;5.25;;
61638;SDS011;47544;52.484;4.658;2022-10-04T00:50:58;10.80;;;5.00;;
61638;SDS011;47544;52.484;4.658;2022-10-04T00:51:17;10.25;;;5.30;;
61638;SDS011;47544;52.484;4.658;2022-10-04T00:51:31;11.43;;;5.40;;
61638;SDS011;47544;52.484;4.658;2022-10-04T00:51:47;11.60;;;5.15;;
61638;SDS011;47544;52.484;4.658;2022-10-04T00:52:04;11.40;;;5.00;;
61638;SDS011;47544;52.484;4.658;2022-10-04T00:52:17;11.70;;;4.93;;
61638;SDS011;47544;52.484;4.658;2022-10-04T00:52:30;12.27;;;4.90;;
61638;SDS011;47544;52.484;4.658;2022-10-04T00:52:45;13.13;;;5.15;;
61638;SDS011;47544;52.484;4.658;2022-10-04T00:52:57;12.00;;;5.25;;
61638;SDS011;47544;52.484;4.658;2022-10-04T00:53:12;10.90;;;5.30;;
61638;SDS011;47544;52.484;4.658;2022-10-04T00:53:34;11.88;;;5.10;;
61638;SDS011;47544;52.484;4.658;2022-10-04T00:53:48;11.52;;;4.90;;
61638;SDS011;47544;52.484;4.658;2022-10-04T00:54:03;11.18;;;5.07;;
61638;SDS011;47544;52.484;4.658;2022-10-04T00:54:20;11.10;;;5.10;;
61638;SDS011;47544;52.484;4.658;2022-10-04T00:54:33;12.88;;;5.35;;
61638;SDS011;47544;52.484;4.658;2022-10-04T00:54:47;12.55;;;5.30;;
61638;SDS011;47544;52.484;4.658;2022-10-04T00:55:01;10.95;;;5.20;;
61638;SDS011;47544;52.484;4.658;2022-10-04T00:55:19;9.18;;;5.00;;
61638;SDS011;47544;52.484;4.658;2022-10-04T00:55:33;10.50;;;4.82;;
61638;SDS011;47544;52.484;4.658;2022-10-04T00:55:48;12.05;;;5.45;;
61638;SDS011;47544;52.484;4.658;2022-10-04T00:55:59;11.43;;;5.57;;
61638;SDS011;47544;52.484;4.658;2022-10-04T00:56:14;11.68;;;5.32;;
61638;SDS011;47544;52.484;4.658;2022-10-04T00:56:30;12.25;;;5.20;;
61638;SDS011;47544;52.484;4.658;2022-10-04T00:56:45;11.90;;;5.18;;
61638;SDS011;47544;52.484;4.658;2022-10-04T00:56:58;10.93;;;5.18;;
61638;SDS011;47544;52.484;4.658;2022-10-04T00:57:14;10.70;;;5.03;;
61638;SDS011;47544;52.484;4.658;2022-10-04T00:57:30;10.82;;;5.20;;
61638;SDS011;47544;52.484;4.658;2022-10-04T00:57:43;12.40;;;5.43;;
61638;SDS011;47544;52.484;4.658;2022-10-04T00:57:56;12.75;;;5.68;;
61638;SDS011;47544;52.484;4.658;2022-10-04T00:58:12;11.45;;;5.70;;
61638;SDS011;47544;52.484;4.658;2022-10-04T00:58:25;11.43;;;5.15;;
61638;SDS011;47544;52.484;4.658;2022-10-04T00:58:39;11.35;;;4.72;;
61638;SDS011;47544;52.484;4.658;2022-10-04T00:59:03;10.68;;;4.95;;
61638;SDS011;47544;52.484;4.658;2022-10-04T00:59:28;11.95;;;5.25;;
61638;SDS011;47544;52.484;4.658;2022-10-04T00:59:40;11.32;;;5.20;;
61638;SDS011;47544;52.484;4.658;2022-10-04T00:59:52;12.18;;;5.22;;
61638;SDS011;47544;52.484;4.658;2022-10-04T01:00:06;13.25;;;5.22;;
61638;SDS011;47544;52.484;4.658;2022-10-04T01:00:18;12.98;;;5.30;;
61638;SDS011;47544;52.484;4.658;2022-10-04T01:00:31;11.50;;;5.13;;
61638;SDS011;47544;52.484;4.658;2022-10-04T01:00:45;10.52;;;4.95;;
61638;SDS011;47544;52.484;4.658;2022-10-04T01:00:57;10.35;;;5.00;;
61638;SDS011;47544;52.484;4.658;2022-10-04T01:01:09;10.85;;;5.30;;
61638;SDS011;47544;52.484;4.658;2022-10-04T01:01:20;11.68;;;5.35;;
61638;SDS011;47544;52.484;4.658;2022-10-04T01:01:33;12.60;;;5.25;;
61638;SDS011;47544;52.484;4.658;2022-10-04T01:01:45;12.30;;;5.00;;
61638;SDS011;47544;52.484;4.658;2022-10-04T01:01:58;13.65;;;5.18;;
61638;SDS011;47544;52.484;4.658;2022-10-04T01:02:13;13.73;;;5.18;;
61638;SDS011;47544;52.484;4.658;2022-10-04T01:02:26;12.75;;;5.22;;
61638;SDS011;47544;52.484;4.658;2022-10-04T01:02:44;13.38;;;5.30;;
61638;SDS011;47544;52.484;4.658;2022-10-04T01:02:57;13.50;;;5.32;;
61638;SDS011;47544;52.484;4.658;2022-10-04T01:03:10;12.95;;;5.38;;
61638;SDS011;47544;52.484;4.658;2022-10-04T01:03:24;12.60;;;5.28;;
61638;SDS011;47544;52.484;4.658;2022-10-04T01:03:37;12.27;;;5.40;;
61638;SDS011;47544;52.484;4.658;2022-10-04T01:03:49;11.55;;;5.63;;
61638;SDS011;47544;52.484;4.658;2022-10-04T01:04:01;10.20;;;5.35;;
61638;SDS011;47544;52.484;4.658;2022-10-04T01:04:20;10.50;;;5.20;;
61638;SDS011;47544;52.484;4.658;2022-10-04T01:04:35;11.75;;;5.28;;
61638;SDS011;47544;52.484;4.658;2022-10-04T01:04:48;11.60;;;5.18;;
61638;SDS011;47544;52.484;4.658;2022-10-04T01:05:01;11.45;;;5.32;;
61638;SDS011;47544;52.484;4.658;2022-10-04T01:05:14;11.80;;;5.45;;
61638;SDS011;47544;52.484;4.658;2022-10-04T01:05:28;12.02;;;5.30;;
61638;SDS011;47544;52.484;4.658;2022-10-04T01:05:41;12.40;;;5.30;;
61638;SDS011;47544;52.484;4.658;2022-10-04T01:05:55;11.05;;;5.13;;
61638;SDS011;47544;52.484;4.658;2022-10-04T01:06:07;10.52;;;4.97;;
61638;SDS011;47544;52.484;4.658;2022-10-04T01:06:20;10.85;;;4.97;;
61638;SDS011;47544;52.484;4.658;2022-10-04T01:06:31;10.57;;;5.30;;
61638;SDS011;47544;52.484;4.658;2022-10-04T01:06:44;11.52;;;5.32;;
61638;SDS011;47544;52.484;4.658;2022-10-04T01:06:56;11.00;;;5.28;;
61638;SDS011;47544;52.484;4.658;2022-10-04T01:07:08;10.50;;;5.15;;
61638;SDS011;47544;52.484;4.658;2022-10-04T01:07:23;9.82;;;5.00;;
61638;SDS011;47544;52.484;4.658;2022-10-04T01:07:36;9.98;;;5.20;;
61638;SDS011;47544;52.484;4.658;2022-10-04T01:07:49;10.23;;;5.13;;
61638;SDS011;47544;52.484;4.658;2022-10-04T01:08:02;10.50;;;4.93;;
61638;SDS011;47544;52.484;4.658;2022-10-04T01:08:14;12.00;;;5.03;;
61638;SDS011;47544;52.484;4.658;2022-10-04T01:08:28;12.80;;;5.18;;
61638;SDS011;47544;52.484;4.658;2022-10-04T01:08:43;12.00;;;5.18;;
61638;SDS011;47544;52.484;4.658;2022-10-04T01:08:55;10.88;;;4.90;;
61638;SDS011;47544;52.484;4.658;2022-10-04T01:09:10;11.07;;;4.80;;
61638;SDS011;47544;52.484;4.658;2022-10-04T01:09:24;12.60;;;5.28;;
61638;SDS011;47544;52.484;4.658;2022-10-04T01:09:38;12.95;;;5.40;;
61638;SDS011;47544;52.484;4.658;2022-10-04T01:09:53;11.63;;;4.88;;
61638;SDS011;47544;52.484;4.658;2022-10-04T01:10:09;11.45;;;4.90;;
61638;SDS011;47544;52.484;4.658;2022-10-04T01:10:23;12.43;;;5.35;;
61638;SDS011;47544;52.484;4.658;2022-10-04T01:10:37;13.00;;;5.47;;
61638;SDS011;47544;52.484;4.658;2022-10-04T01:10:51;13.05;;;5.30;;
61638;SDS011;47544;52.484;4.658;2022-10-04T01:11:03;12.75;;;5.32;;
61638;SDS011;47544;52.484;4.658;2022-10-04T01:11:17;11.93;;;5.10;;
61638;SDS011;47544;52.484;4.658;2022-10-04T01:11:33;12.10;;;5.07;;
61638;SDS011;47544;52.484;4.658;2022-10-04T01:11:49;11.85;;;5.30;;
61638;SDS011;47544;52.484;4.658;2022-10-04T01:12:06;11.50;;;5.05;;
61638;SDS011;47544;52.484;4.658;2022-10-04T01:12:22;13.07;;;5.13;;
61638;SDS011;47544;52.484;4.658;2022-10-04T01:12:39;15.73;;;5.40;;
61638;SDS011;47544;52.484;4.658;2022-10-04T01:12:52;13.40;;;5.43;;
61638;SDS011;47544;52.484;4.658;2022-10-04T01:13:06;10.80;;;5.15;;
61638;SDS011;47544;52.484;4.658;2022-10-04T01:13:20;10.60;;;4.95;;
61638;SDS011;47544;52.484;4.658;2022-10-04T01:13:34;10.60;;;4.85;;
61638;SDS011;47544;52.484;4.658;2022-10-04T01:13:48;11.02;;;4.97;;
61638;SDS011;47544;52.484;4.658;2022-10-04T01:14:00;10.60;;;5.00;;
61638;SDS011;47544;52.484;4.658;2022-10-04T01:14:17;10.00;;;4.95;;
61638;SDS011;47544;52.484;4.658;2022-10-04T01:14:33;11.15;;;4.95;;
61638;SDS011;47544;52.484;4.658;2022-10-04T01:14:50;13.55;;;5.25;;
61638;SDS011;47544;52.484;4.658;2022-10-04T01:15:04;13.52;;;5.20;;
61638;SDS011;47544;52.484;4.658;2022-10-04T01:15:17;13.15;;;4.93;;
61638;SDS011;47544;52.484;4.658;2022-10-04T01:15:33;11.85;;;5.00;;
61638;SDS011;47544;52.484;4.658;2022-10-04T01:15:48;11.05;;;5.00;;
61638;SDS011;47544;52.484;4.658;2022-10-04T01:16:02;10.52;;;4.80;;
61638;SDS011;47544;52.484;4.658;2022-10-04T01:16:15;10.15;;;4.90;;
61638;SDS011;47544;52.484;4.658;2022-10-04T01:16:28;10.02;;;4.78;;
61638;SDS011;47544;52.484;4.658;2022-10-04T01:16:43;10.57;;;4.80;;
61638;SDS011;47544;52.484;4.658;2022-10-04T01:16:54;11.52;;;5.10;;
61638;SDS011;47544;52.484;4.658;2022-10-04T01:17:04;10.47;;;5.07;;
61638;SDS011;47544;52.484;4.658;2022-10-04T01:17:18;10.77;;;4.90;;
61638;SDS011;47544;52.484;4.658;2022-10-04T01:17:29;11.25;;;4.60;;
61638;SDS011;47544;52.484;4.658;2022-10-04T01:17:43;11.80;;;4.88;;
61638;SDS011;47544;52.484;4.658;2022-10-04T01:18:15;10.52;;;4.93;;
61638;SDS011;47544;52.484;4.658;2022-10-04T01:18:27;11.70;;;4.90;;
61638;SDS011;47544;52.484;4.658;2022-10-04T01:18:38;12.35;;;4.90;;
61638;SDS011;47544;52.484;4.658;2022-10-04T01:18:50;12.15;;;5.03;;
61638;SDS011;47544;52.484;4.658;2022-10-04T01:19:31;12.27;;;5.22;;
61638;SDS011;47544;52.484;4.658;2022-10-04T01:19:48;11.68;;;5.28;;
61638;SDS011;47544;52.484;4.658;2022-10-04T01:20:00;12.10;;;5.18;;
61638;SDS011;47544;52.484;4.658;2022-10-04T01:20:24;11.80;;;5.07;;
61638;SDS011;47544;52.484;4.658;2022-10-04T01:20:40;11.10;;;5.57;;
61638;SDS011;47544;52.484;4.658;2022-10-04T01:20:59;11.57;;;5.25;;
61638;SDS011;47544;52.484;4.658;2022-10-04T01:21:21;11.73;;;5.22;;
61638;SDS011;47544;52.484;4.658;2022-10-04T01:21:33;12.15;;;5.15;;
61638;SDS011;47544;52.484;4.658;2022-10-04T01:21:45;14.25;;;5.50;;
61638;SDS011;47544;52.484;4.658;2022-10-04T01:21:57;15.40;;;5.63;;
61638;SDS011;47544;52.484;4.658;2022-10-04T01:22:10;13.80;;;5.60;;
61638;SDS011;47544;52.484;4.658;2022-10-04T01:22:32;13.52;;;5.20;;
61638;SDS011;47544;52.484;4.658;2022-10-04T01:22:44;12.10;;;5.22;;
61638;SDS011;47544;52.484;4.658;2022-10-04T01:22:59;10.93;;;5.15;;
61638;SDS011;47544;52.484;4.658;2022-10-04T01:23:13;10.98;;;4.93;;
61638;SDS011;47544;52.484;4.658;2022-10-04T01:23:40;11.68;;;5.07;;
61638;SDS011;47544;52.484;4.658;2022-10-04T01:23:52;12.23;;;5.22;;
61638;SDS011;47544;52.484;4.658;2022-10-04T01:24:34;9.05;;;5.00;;
61638;SDS011;47544;52.484;4.658;2022-10-04T01:24:48;10.60;;;4.95;;
61638;SDS011;47544;52.484;4.658;2022-10-04T01:24:59;11.52;;;4.90;;
61638;SDS011;47544;52.484;4.658;2022-10-04T01:25:10;13.10;;;5.10;;
61638;SDS011;47544;52.484;4.658;2022-10-04T01:25:42;11.73;;;5.00;;
61638;SDS011;47544;52.484;4.658;2022-10-04T01:25:53;11.43;;;5.00;;
61638;SDS011;47544;52.484;4.658;2022-10-04T01:26:06;10.85;;;5.10;;
61638;SDS011;47544;52.484;4.658;2022-10-04T01:26:39;11.65;;;5.10;;
61638;SDS011;47544;52.484;4.658;2022-10-04T01:26:51;11.50;;;5.20;;
61638;SDS011;47544;52.484;4.658;2022-10-04T01:27:02;12.38;;;5.22;;
61638;SDS011;47544;52.484;4.658;2022-10-04T01:27:36;11.02;;;5.03;;
61638;SDS011;47544;52.484;4.658;2022-10-04T01:27:50;11.23;;;5.25;;
61638;SDS011;47544;52.484;4.658;2022-10-04T01:28:02;11.35;;;5.20;;
61638;SDS011;47544;52.484;4.658;2022-10-04T01:28:13;11.75;;;5.22;;
61638;SDS011;47544;52.484;4.658;2022-10-04T01:28:24;12.35;;;5.38;;
61638;SDS011;47544;52.484;4.658;2022-10-04T01:28:35;11.15;;;5.10;;
61638;SDS011;47544;52.484;4.658;2022-10-04T01:28:49;10.52;;;5.03;;
61638;SDS011;47544;52.484;4.658;2022-10-04T01:29:01;9.93;;;5.07;;
61638;SDS011;47544;52.484;4.658;2022-10-04T01:29:15;11.13;;;5.07;;
61638;SDS011;47544;52.484;4.658;2022-10-04T01:29:28;10.93;;;5.20;;
61638;SDS011;47544;52.484;4.658;2022-10-04T01:29:40;9.98;;;5.28;;
61638;SDS011;47544;52.484;4.658;2022-10-04T01:29:50;9.95;;;5.28;;
61638;SDS011;47544;52.484;4.658;2022-10-04T01:30:03;10.35;;;5.13;;
61638;SDS011;47544;52.484;4.658;2022-10-04T01:30:15;10.52;;;5.10;;
61638;SDS011;47544;52.484;4.658;2022-10-04T01:30:27;10.65;;;5.20;;
61638;SDS011;47544;52.484;4.658;2022-10-04T01:30:38;10.73;;;5.40;;
61638;SDS011;47544;52.484;4.658;2022-10-04T01:30:49;11.02;;;5.30;;
61638;SDS011;47544;52.484;4.658;2022-10-04T01:31:00;12.30;;;5.22;;
61638;SDS011;47544;52.484;4.658;2022-10-04T01:31:11;11.38;;;4.88;;
61638;SDS011;47544;52.484;4.658;2022-10-04T01:31:22;11.60;;;4.88;;
61638;SDS011;47544;52.484;4.658;2022-10-04T01:31:34;10.43;;;4.90;;
61638;SDS011;47544;52.484;4.658;2022-10-04T01:31:46;12.00;;;5.40;;
61638;SDS011;47544;52.484;4.658;2022-10-04T01:31:59;12.80;;;5.60;;
61638;SDS011;47544;52.484;4.658;2022-10-04T01:32:10;12.32;;;5.63;;
61638;SDS011;47544;52.484;4.658;2022-10-04T01:32:21;10.60;;;5.45;;
61638;SDS011;47544;52.484;4.658;2022-10-04T01:32:32;10.23;;;5.22;;
61638;SDS011;47544;52.484;4.658;2022-10-04T01:32:43;10.27;;;5.13;;
61638;SDS011;47544;52.484;4.658;2022-10-04T01:32:54;10.57;;;5.20;;
61638;SDS011;47544;52.484;4.658;2022-10-04T01:33:05;10.57;;;5.28;;
61638;SDS011;47544;52.484;4.658;2022-10-04T01:33:16;11.70;;;5.15;;
61638;SDS011;47544;52.484;4.658;2022-10-04T01:33:28;12.63;;;5.45;;
61638;SDS011;47544;52.484;4.658;2022-10-04T01:33:46;12.00;;;5.50;;
61638;SDS011;47544;52.484;4.658;2022-10-04T01:34:11;10.13;;;5.00;;
61638;SDS011;47544;52.484;4.658;2022-10-04T01:34:24;11.40;;;5.30;;
61638;SDS011;47544;52.484;4.658;2022-10-04T01:34:35;12.32;;;5.55;;
61638;SDS011;47544;52.484;4.658;2022-10-04T01:34:50;13.45;;;5.68;;
61638;SDS011;47544;52.484;4.658;2022-10-04T01:35:02;14.32;;;5.65;;
61638;SDS011;47544;52.484;4.658;2022-10-04T01:35:13;13.02;;;5.60;;
61638;SDS011;47544;52.484;4.658;2022-10-04T01:35:25;11.70;;;5.50;;
61638;SDS011;47544;52.484;4.658;2022-10-04T01:35:36;10.98;;;5.43;;
61638;SDS011;47544;52.484;4.658;2022-10-04T01:35:47;10.35;;;5.30;;
61638;SDS011;47544;52.484;4.658;2022-10-04T01:35:58;10.75;;;5.38;;
61638;SDS011;47544;52.484;4.658;2022-10-04T01:36:09;11.25;;;5.63;;
61638;SDS011;47544;52.484;4.658;2022-10-04T01:36:21;13.05;;;5.85;;
61638;SDS011;47544;52.484;4.658;2022-10-04T01:36:33;14.55;;;5.70;;
61638;SDS011;47544;52.484;4.658;2022-10-04T01:36:44;13.35;;;5.32;;